Time;durP1;ratioP1;P1;durP2;ratioP2;P2;SDS_P1;SDS_P2;PMS_P1;PMS_P2;Temp;Humidity;BMP_temperature;BMP_pressure;BME280_temperature;BME280_humidity;BME280_pressure;Samples;Min_cycle;Max_cycle;Signal;HPM_P1;HPM_P2
2021/12/18 00:02:09;;;;;;;1.20;0.50;;;19.90;52.90;;;;;;5052759;28;20057;-85
2021/12/18 00:04:35;;;;;;;2.10;0.40;;;19.90;52.90;;;;;;5052806;28;20033;-86
2021/12/18 00:07:01;;;;;;;0.88;0.30;;;19.90;52.90;;;;;;5052658;28;20040;-88
2021/12/18 00:09:29;;;;;;;1.00;0.38;;;19.90;52.90;;;;;;5052676;28;20513;-85
2021/12/18 00:11:55;;;;;;;0.93;0.30;;;19.80;53.00;;;;;;5052616;28;20029;-89
2021/12/18 00:14:21;;;;;;;1.10;0.40;;;19.80;53.00;;;;;;5052657;28;20032;-87
2021/12/18 00:16:46;;;;;;;1.40;0.60;;;19.80;53.00;;;;;;5052798;28;20020;-85
2021/12/18 00:19:13;;;;;;;1.23;0.40;;;19.80;53.00;;;;;;5051503;28;20374;-89
2021/12/18 00:21:38;;;;;;;2.38;0.40;;;19.70;53.00;;;;;;5052578;28;20021;-85
2021/12/18 00:24:06;;;;;;;0.52;0.30;;;19.70;53.10;;;;;;5055329;28;20048;-85
2021/12/18 00:26:32;;;;;;;0.60;0.38;;;19.70;53.10;;;;;;5056213;28;20029;-89
2021/12/18 00:28:57;;;;;;;1.15;0.40;;;19.70;53.20;;;;;;5056156;28;20478;-87
2021/12/18 00:31:23;;;;;;;0.40;0.25;;;19.70;53.20;;;;;;5056168;28;20032;-89
2021/12/18 00:33:49;;;;;;;0.57;0.30;;;19.60;53.20;;;;;;5056124;28;20035;-89
2021/12/18 00:36:14;;;;;;;0.47;0.30;;;19.60;53.10;;;;;;5055849;28;20071;-87
2021/12/18 00:38:41;;;;;;;0.52;0.32;;;19.60;53.20;;;;;;5055802;28;20090;-87
2021/12/18 00:43:41;;;;;;;0.82;0.30;;;19.60;53.20;;;;;;5055790;28;20021;-88
2021/12/18 00:46:07;;;;;;;0.65;0.30;;;19.50;53.20;;;;;;5055755;28;20048;-86
2021/12/18 00:48:32;;;;;;;0.73;0.20;;;19.50;53.20;;;;;;5055548;28;20517;-86
2021/12/18 00:50:58;;;;;;;1.15;0.40;;;19.50;53.20;;;;;;5055577;28;20028;-88
2021/12/18 00:53:24;;;;;;;0.73;0.30;;;19.50;53.20;;;;;;5055586;28;20374;-86
2021/12/18 00:55:52;;;;;;;2.42;0.50;;;19.50;53.30;;;;;;5055523;28;20526;-85
2021/12/18 00:58:17;;;;;;;0.80;0.40;;;19.40;53.30;;;;;;5055471;28;20091;-87
2021/12/18 01:00:43;;;;;;;1.30;0.40;;;19.50;53.40;;;;;;5055593;28;20036;-87
2021/12/18 01:03:17;;;;;;;1.75;0.40;;;19.40;53.40;;;;;;5055572;28;20439;-85
2021/12/18 01:05:43;;;;;;;0.60;0.38;;;19.40;53.30;;;;;;5055394;28;20078;-86
2021/12/18 01:08:09;;;;;;;1.25;0.30;;;19.40;53.40;;;;;;5054026;28;20055;-86
2021/12/18 01:13:25;;;;;;;0.77;0.30;;;19.40;53.40;;;;;;5055652;28;20028;-85
2021/12/18 01:15:54;;;;;;;0.98;0.40;;;19.30;53.40;;;;;;5055282;28;20082;-86
2021/12/18 01:23:48;;;;;;;1.30;0.50;;;19.30;53.60;;;;;;5055338;28;20436;-86
2021/12/18 01:26:14;;;;;;;0.60;0.32;;;19.20;53.60;;;;;;5055094;28;20029;-88
2021/12/18 01:28:40;;;;;;;0.65;0.43;;;19.20;53.50;;;;;;5054902;28;20028;-86
2021/12/18 01:31:06;;;;;;;0.55;0.30;;;19.20;53.60;;;;;;5054984;28;20021;-87
2021/12/18 01:33:32;;;;;;;1.40;0.38;;;19.20;53.60;;;;;;5054610;28;20023;-88
2021/12/18 01:36:00;;;;;;;0.93;0.30;;;19.20;53.60;;;;;;5054924;28;20025;-87
2021/12/18 01:38:28;;;;;;;0.75;0.30;;;19.20;54.60;;;;;;5054766;28;20103;-87
2021/12/18 01:40:54;;;;;;;0.85;0.40;;;19.10;53.60;;;;;;5054769;28;20029;-89
2021/12/18 01:51:20;;;;;;;0.70;0.28;;;19.10;53.70;;;;;;5054743;28;20028;-86
2021/12/18 01:53:52;;;;;;;0.40;0.30;;;19.10;53.70;;;;;;5054578;28;20079;-88
2021/12/18 01:56:18;;;;;;;0.70;0.30;;;19.00;53.70;;;;;;5054612;28;20036;-86
2021/12/18 01:58:45;;;;;;;0.95;0.20;;;19.00;53.70;;;;;;5054435;28;20513;-86
2021/12/18 02:01:11;;;;;;;0.73;0.55;;;19.00;53.80;;;;;;5054248;28;20486;-87
2021/12/18 02:03:38;;;;;;;0.30;0.22;;;19.00;53.80;;;;;;5054305;28;20025;-85
2021/12/18 02:06:04;;;;;;;0.40;0.30;;;19.00;53.80;;;;;;5054172;28;20063;-88
2021/12/18 02:08:33;;;;;;;0.57;0.20;;;19.00;53.80;;;;;;5054117;28;20033;-85
2021/12/18 02:11:15;;;;;;;0.57;0.30;;;18.90;53.80;;;;;;5054287;28;20047;-88
2021/12/18 02:19:45;;;;;;;0.70;0.30;;;18.90;53.90;;;;;;5054258;28;20163;-85
2021/12/18 02:22:12;;;;;;;0.43;0.20;;;18.90;53.90;;;;;;5054053;28;20104;-87
2021/12/18 02:24:38;;;;;;;0.30;0.28;;;18.80;53.90;;;;;;5053960;28;20021;-88
2021/12/18 02:27:03;;;;;;;0.40;0.20;;;18.80;53.90;;;;;;5053925;28;20492;-88
2021/12/18 02:29:31;;;;;;;0.70;0.28;;;18.80;53.90;;;;;;5053742;28;20210;-89
2021/12/18 02:31:58;;;;;;;0.40;0.30;;;18.80;53.90;;;;;;5053820;28;20055;-86
2021/12/18 02:34:28;;;;;;;0.30;0.20;;;18.80;53.90;;;;;;5053693;28;20025;-86
2021/12/18 02:37:00;;;;;;;0.55;0.20;;;18.70;53.90;;;;;;5053928;28;20096;-85
2021/12/18 02:39:43;;;;;;;0.75;0.32;;;18.80;54.00;;;;;;5053636;28;20053;-85
2021/12/18 02:42:18;;;;;;;1.30;0.30;;;18.70;54.00;;;;;;5053777;28;20067;-85
2021/12/18 02:44:44;;;;;;;0.32;0.22;;;18.70;54.00;;;;;;5053413;28;20020;-86
2021/12/18 02:47:12;;;;;;;0.85;0.25;;;18.70;54.00;;;;;;5052877;28;20463;-85
2021/12/18 02:49:43;;;;;;;1.48;0.40;;;18.70;54.10;;;;;;5053522;28;20028;-88
2021/12/18 02:52:08;;;;;;;0.30;0.20;;;18.70;54.00;;;;;;5053572;28;20021;-87
2021/12/18 02:54:38;;;;;;;0.25;0.25;;;18.60;54.10;;;;;;5053492;28;20025;-88
2021/12/18 02:57:03;;;;;;;0.40;0.30;;;18.60;54.10;;;;;;5052303;28;20031;-86
2021/12/18 02:59:29;;;;;;;0.43;0.30;;;18.60;54.10;;;;;;5053405;28;20100;-88
2021/12/18 03:02:01;;;;;;;0.82;0.20;;;18.60;54.10;;;;;;5056393;28;20021;-92
2021/12/18 03:04:32;;;;;;;0.68;0.30;;;18.60;54.10;;;;;;5065228;28;20605;-85
2021/12/18 03:07:01;;;;;;;2.05;0.50;;;18.60;54.20;;;;;;5065549;28;20025;-84
2021/12/18 03:18:54;;;;;;;0.40;0.30;;;18.60;54.20;;;;;;5065507;28;20025;-84
2021/12/18 03:23:40;;;;;;;1.98;0.40;;;18.40;54.20;;;;;;5066390;28;20556;-84
2021/12/18 03:26:06;;;;;;;1.65;0.30;;;18.40;54.30;;;;;;5065841;28;20058;-84
2021/12/18 03:28:31;;;;;;;0.60;0.25;;;18.40;54.30;;;;;;5065260;28;20031;-84
2021/12/18 03:30:57;;;;;;;1.95;0.30;;;18.40;54.40;;;;;;5066607;28;20025;-84
2021/12/18 03:33:25;;;;;;;0.90;0.30;;;18.40;54.30;;;;;;5065748;28;20025;-84
2021/12/18 03:35:51;;;;;;;1.52;0.50;;;18.40;54.30;;;;;;5064557;28;20026;-83
2021/12/18 03:38:17;;;;;;;0.73;0.20;;;18.40;54.40;;;;;;5064782;28;20025;-84
2021/12/18 03:40:42;;;;;;;0.32;0.20;;;18.40;54.40;;;;;;5065834;28;20036;-84
2021/12/18 03:43:08;;;;;;;0.40;0.20;;;18.40;54.50;;;;;;5064430;28;20052;-84
2021/12/18 03:45:34;;;;;;;1.13;0.30;;;18.40;54.40;;;;;;5065661;28;20059;-84
2021/12/18 03:47:59;;;;;;;1.50;0.20;;;18.30;54.40;;;;;;5065788;28;20513;-84
2021/12/18 03:50:25;;;;;;;0.68;0.40;;;18.40;54.50;;;;;;5065535;28;20032;-84
2021/12/18 03:52:51;;;;;;;0.20;0.15;;;18.30;54.50;;;;;;5064504;28;20029;-84
2021/12/18 03:55:17;;;;;;;0.50;0.17;;;18.30;54.50;;;;;;5065419;28;20029;-84
2021/12/18 03:57:43;;;;;;;0.55;0.20;;;18.30;54.50;;;;;;5066157;28;20165;-84
2021/12/18 04:00:11;;;;;;;0.50;0.20;;;18.30;54.50;;;;;;5069503;28;20036;-84
2021/12/18 04:02:36;;;;;;;0.20;0.20;;;18.30;54.50;;;;;;5068702;28;20025;-85
2021/12/18 04:05:03;;;;;;;1.10;0.30;;;18.30;54.50;;;;;;5068781;28;20382;-84
2021/12/18 04:07:28;;;;;;;0.77;0.20;;;18.30;54.60;;;;;;5069061;28;20029;-84
2021/12/18 04:09:54;;;;;;;1.05;0.20;;;18.20;54.50;;;;;;5069854;28;20021;-84
2021/12/18 04:12:19;;;;;;;0.77;0.30;;;18.20;55.50;;;;;;5068115;28;20567;-84
2021/12/18 04:14:45;;;;;;;1.48;0.40;;;18.20;54.50;;;;;;5068229;28;20029;-85
2021/12/18 04:17:11;;;;;;;1.30;0.30;;;18.20;54.60;;;;;;5068527;28;20021;-84
2021/12/18 04:19:37;;;;;;;1.05;0.20;;;18.20;54.70;;;;;;5069642;28;20074;-84
2021/12/18 04:22:03;;;;;;;0.50;0.10;;;18.20;54.70;;;;;;5068580;28;20049;-84
2021/12/18 04:24:28;;;;;;;0.40;0.10;;;18.20;54.70;;;;;;5069180;28;20043;-85
2021/12/18 04:26:54;;;;;;;1.00;0.30;;;18.10;54.60;;;;;;5069286;28;20029;-84
2021/12/18 04:29:20;;;;;;;0.20;0.10;;;18.10;54.70;;;;;;5068507;28;20389;-84
2021/12/18 04:31:45;;;;;;;0.40;0.20;;;18.10;54.70;;;;;;5068764;28;20029;-84
2021/12/18 04:34:11;;;;;;;0.17;0.10;;;18.10;54.70;;;;;;5068968;28;20017;-84
2021/12/18 04:36:37;;;;;;;2.30;0.30;;;18.10;54.70;;;;;;5068652;28;20025;-84
2021/12/18 04:39:04;;;;;;;0.30;0.20;;;18.10;54.70;;;;;;5069013;28;20025;-85
2021/12/18 04:41:43;;;;;;;0.40;0.20;;;18.10;54.80;;;;;;5069090;28;20104;-84
2021/12/18 04:44:09;;;;;;;0.57;0.20;;;18.10;54.80;;;;;;5068502;28;20108;-84
2021/12/18 04:46:35;;;;;;;1.67;0.30;;;18.00;54.80;;;;;;5068390;28;20091;-84
2021/12/18 04:49:00;;;;;;;0.63;0.20;;;18.00;54.80;;;;;;5067339;28;20072;-84
2021/12/18 04:51:26;;;;;;;0.30;0.20;;;18.00;54.80;;;;;;5068490;28;20049;-84
2021/12/18 04:53:52;;;;;;;0.75;0.20;;;18.00;54.80;;;;;;5068950;28;20442;-85
2021/12/18 04:56:18;;;;;;;0.93;0.22;;;18.00;54.80;;;;;;5068594;28;20092;-84
2021/12/18 04:58:43;;;;;;;0.20;0.20;;;18.00;54.80;;;;;;5067993;28;20107;-84
2021/12/18 05:01:09;;;;;;;0.60;0.22;;;18.00;54.80;;;;;;5068144;28;20076;-84
2021/12/18 05:03:37;;;;;;;0.47;0.20;;;18.00;54.90;;;;;;5067974;28;20024;-85
2021/12/18 05:06:03;;;;;;;0.20;0.20;;;18.00;54.90;;;;;;5068465;28;20029;-84
2021/12/18 05:08:29;;;;;;;0.47;0.20;;;18.00;55.00;;;;;;5068295;28;20033;-84
2021/12/18 05:10:55;;;;;;;0.80;0.20;;;18.00;54.90;;;;;;5067477;28;20088;-84
2021/12/18 05:13:20;;;;;;;0.30;0.15;;;17.90;54.90;;;;;;5068456;28;20029;-84
2021/12/18 05:15:46;;;;;;;0.60;0.20;;;17.90;54.90;;;;;;5068301;28;20395;-84
2021/12/18 05:18:12;;;;;;;0.25;0.20;;;17.90;54.90;;;;;;5068322;28;20485;-83
2021/12/18 05:20:37;;;;;;;1.00;0.22;;;17.90;54.90;;;;;;5067497;28;20025;-87
2021/12/18 05:23:03;;;;;;;0.73;0.10;;;17.90;54.90;;;;;;5068240;28;20085;-84
2021/12/18 05:25:29;;;;;;;0.25;0.20;;;17.90;54.90;;;;;;5068364;28;20033;-84
2021/12/18 05:27:54;;;;;;;0.38;0.22;;;17.90;54.90;;;;;;5067109;28;20025;-84
2021/12/18 05:30:20;;;;;;;0.70;0.20;;;17.90;54.90;;;;;;5068618;28;20031;-84
2021/12/18 05:32:46;;;;;;;0.75;0.30;;;17.80;55.00;;;;;;5068551;28;20076;-84
2021/12/18 05:35:14;;;;;;;1.20;0.20;;;17.80;55.00;;;;;;5067020;28;20024;-84
2021/12/18 05:37:51;;;;;;;0.20;0.20;;;17.80;55.00;;;;;;5067549;28;20017;-84
2021/12/18 05:40:20;;;;;;;0.93;0.20;;;17.80;55.00;;;;;;5067944;28;20055;-83
2021/12/18 05:42:47;;;;;;;0.57;0.20;;;17.80;55.00;;;;;;5067682;28;20182;-86
2021/12/18 05:45:14;;;;;;;0.50;0.30;;;17.80;55.00;;;;;;5067574;28;20033;-86
2021/12/18 05:47:39;;;;;;;0.45;0.15;;;17.80;55.10;;;;;;5067485;28;20029;-86
2021/12/18 05:50:06;;;;;;;0.45;0.20;;;17.80;55.00;;;;;;5067836;28;20076;-84
2021/12/18 05:52:32;;;;;;;0.30;0.20;;;17.80;55.10;;;;;;5068159;28;20013;-84
2021/12/18 05:54:58;;;;;;;0.55;0.20;;;17.80;55.10;;;;;;5065506;28;20523;-84
2021/12/18 05:57:24;;;;;;;0.25;0.10;;;17.80;56.10;;;;;;5067651;28;20049;-84
2021/12/18 05:59:49;;;;;;;0.30;0.20;;;17.70;55.00;;;;;;5067103;28;20032;-84
2021/12/18 06:02:15;;;;;;;0.63;0.28;;;17.70;55.10;;;;;;5065652;28;20047;-84
2021/12/18 06:04:42;;;;;;;0.68;0.25;;;17.70;55.10;;;;;;5067947;28;20365;-84
2021/12/18 06:07:16;;;;;;;0.80;0.20;;;17.70;55.10;;;;;;5066892;28;20032;-84
2021/12/18 06:09:41;;;;;;;0.45;0.20;;;17.70;55.10;;;;;;5067607;28;20017;-84
2021/12/18 06:12:08;;;;;;;0.60;0.20;;;17.70;55.20;;;;;;5066750;28;20029;-84
2021/12/18 06:14:33;;;;;;;0.50;0.28;;;17.70;55.40;;;;;;5066268;28;20028;-84
2021/12/18 06:16:59;;;;;;;0.40;0.20;;;17.70;55.50;;;;;;5065923;28;20018;-87
2021/12/18 06:19:24;;;;;;;0.88;0.20;;;17.70;55.60;;;;;;5066400;28;20119;-84
2021/12/18 06:21:50;;;;;;;0.68;0.20;;;17.70;55.60;;;;;;5067105;28;20044;-84
2021/12/18 06:24:16;;;;;;;1.45;0.20;;;17.80;55.80;;;;;;5067288;28;20033;-84
2021/12/18 06:26:42;;;;;;;0.55;0.20;;;17.80;55.70;;;;;;5067073;28;20049;-84
2021/12/18 06:29:08;;;;;;;0.82;0.10;;;17.90;55.70;;;;;;5067307;28;20017;-84
2021/12/18 06:31:36;;;;;;;1.20;0.20;;;18.00;55.60;;;;;;5067007;28;20025;-84
2021/12/18 06:34:02;;;;;;;0.32;0.20;;;18.10;55.50;;;;;;5066622;28;20461;-84
2021/12/18 06:36:28;;;;;;;1.15;0.43;;;18.30;55.40;;;;;;5067249;28;20017;-84
2021/12/18 06:38:54;;;;;;;1.30;0.15;;;18.40;55.10;;;;;;5066619;28;20025;-84
2021/12/18 06:41:19;;;;;;;0.82;0.28;;;18.60;55.00;;;;;;5066741;28;20036;-86
2021/12/18 06:43:45;;;;;;;0.95;0.30;;;18.70;54.70;;;;;;5066246;28;20483;-84
2021/12/18 06:46:10;;;;;;;0.55;0.10;;;18.90;54.50;;;;;;5063584;28;20057;-85
2021/12/18 06:48:36;;;;;;;0.60;0.30;;;19.00;54.20;;;;;;5064984;28;20036;-84
2021/12/18 06:51:02;;;;;;;0.73;0.30;;;19.20;54.00;;;;;;5065803;28;20096;-85
2021/12/18 06:53:29;;;;;;;0.93;0.20;;;19.30;53.70;;;;;;5065459;28;20041;-84
2021/12/18 06:55:55;;;;;;;0.80;0.30;;;19.50;53.40;;;;;;5066665;28;20025;-84
2021/12/18 06:58:20;;;;;;;1.75;0.40;;;19.60;53.10;;;;;;5065816;28;20021;-84
2021/12/18 07:00:46;;;;;;;1.73;0.40;;;19.70;52.90;;;;;;5064913;28;20025;-84
2021/12/18 07:03:12;;;;;;;1.25;0.50;;;19.80;52.70;;;;;;5065732;28;20021;-84
2021/12/18 07:05:38;;;;;;;0.82;0.30;;;19.90;52.40;;;;;;5065075;28;20025;-86
2021/12/18 07:08:04;;;;;;;0.90;0.40;;;20.00;52.30;;;;;;5064801;28;20021;-85
2021/12/18 07:10:31;;;;;;;0.70;0.20;;;20.10;52.10;;;;;;5065171;28;20055;-86
2021/12/18 07:12:57;;;;;;;0.57;0.30;;;20.20;52.00;;;;;;5060053;28;20021;-85
2021/12/18 07:15:23;;;;;;;0.75;0.30;;;20.30;51.90;;;;;;5061925;28;20020;-89
2021/12/18 07:17:48;;;;;;;2.63;0.40;;;20.30;51.80;;;;;;5061204;28;20367;-86
2021/12/18 07:20:14;;;;;;;3.40;0.70;;;20.40;51.70;;;;;;5057035;28;20549;-92
2021/12/18 07:22:40;;;;;;;3.00;0.40;;;20.40;51.70;;;;;;5053290;28;20021;-93
2021/12/18 07:25:06;;;;;;;1.13;0.30;;;20.40;51.50;;;;;;5055030;28;20374;-92
2021/12/18 07:27:32;;;;;;;1.25;0.30;;;20.40;51.40;;;;;;5053437;28;20029;-86
2021/12/18 07:29:58;;;;;;;3.42;0.30;;;20.40;51.30;;;;;;5053725;28;20029;-91
2021/12/18 07:32:23;;;;;;;4.03;0.50;;;20.50;51.40;;;;;;5055049;28;20021;-88
2021/12/18 07:34:49;;;;;;;2.78;0.50;;;20.50;51.30;;;;;;5056321;28;20099;-89
2021/12/18 07:37:15;;;;;;;1.77;0.40;;;20.50;51.30;;;;;;5057661;28;20096;-89
2021/12/18 07:39:40;;;;;;;0.98;0.43;;;20.50;51.30;;;;;;5056455;28;20358;-90
2021/12/18 07:42:06;;;;;;;3.17;0.55;;;20.50;51.20;;;;;;5056141;28;20021;-89
2021/12/18 07:44:32;;;;;;;3.47;0.55;;;20.50;51.50;;;;;;5056110;28;20075;-94
2021/12/18 07:46:57;;;;;;;2.10;0.50;;;20.50;51.10;;;;;;5057135;28;20049;-91
2021/12/18 07:49:23;;;;;;;2.70;0.60;;;20.50;51.10;;;;;;5057338;28;20025;-91
2021/12/18 07:51:48;;;;;;;1.98;0.63;;;20.50;51.10;;;;;;5057406;28;20033;-90
2021/12/18 07:54:14;;;;;;;4.45;0.55;;;20.50;51.10;;;;;;5055799;28;20031;-88
2021/12/18 07:56:40;;;;;;;4.38;0.70;;;20.50;51.00;;;;;;5056644;28;20043;-87
2021/12/18 07:59:06;;;;;;;1.52;0.55;;;20.50;51.00;;;;;;5056644;28;20075;-88
2021/12/18 08:01:31;;;;;;;5.00;0.90;;;20.50;51.10;;;;;;5056326;28;20025;-87
2021/12/18 08:03:57;;;;;;;5.72;0.50;;;20.50;51.10;;;;;;5056596;28;20028;-87
2021/12/18 08:06:22;;;;;;;6.72;0.77;;;20.50;51.10;;;;;;5055380;28;20471;-87
2021/12/18 08:08:48;;;;;;;5.43;0.80;;;20.50;51.20;;;;;;5056465;28;20033;-87
2021/12/18 08:11:15;;;;;;;7.05;0.98;;;20.40;51.20;;;;;;5056518;28;20045;-87
2021/12/18 08:13:41;;;;;;;6.10;1.00;;;20.40;51.30;;;;;;5056425;28;20560;-87
2021/12/18 08:16:07;;;;;;;8.85;0.70;;;20.40;51.30;;;;;;5056245;28;20070;-88
2021/12/18 08:18:32;;;;;;;3.42;0.60;;;20.40;51.40;;;;;;5056558;28;20151;-87
2021/12/18 08:20:58;;;;;;;5.07;0.77;;;20.40;51.40;;;;;;5056232;28;20111;-87
2021/12/18 08:23:24;;;;;;;3.55;0.80;;;20.40;51.50;;;;;;5056148;28;20025;-87
2021/12/18 08:25:50;;;;;;;5.20;0.75;;;20.40;51.60;;;;;;5056132;28;20048;-87
2021/12/18 08:28:16;;;;;;;5.93;0.80;;;20.40;51.60;;;;;;5055981;28;20104;-87
2021/12/18 08:30:42;;;;;;;5.60;1.08;;;20.40;51.60;;;;;;5056079;28;20021;-87
2021/12/18 08:33:08;;;;;;;5.20;0.95;;;20.30;51.70;;;;;;5056089;28;20506;-87
2021/12/18 08:35:34;;;;;;;5.22;0.80;;;20.30;51.70;;;;;;5055968;28;20510;-87
2021/12/18 08:38:02;;;;;;;2.80;0.80;;;20.30;51.80;;;;;;5055958;28;20042;-87
2021/12/18 08:40:30;;;;;;;5.68;0.65;;;20.30;51.80;;;;;;5055824;28;20032;-87
2021/12/18 08:42:55;;;;;;;7.13;0.75;;;20.30;51.80;;;;;;5055138;28;20021;-88
2021/12/18 08:45:21;;;;;;;4.72;1.00;;;20.30;51.90;;;;;;5053916;28;20052;-87
2021/12/18 08:47:47;;;;;;;5.88;0.80;;;20.20;51.90;;;;;;5055806;28;20029;-88
2021/12/18 08:50:17;;;;;;;4.55;0.63;;;20.20;52.00;;;;;;5055830;28;20025;-88
2021/12/18 08:52:43;;;;;;;5.25;1.02;;;20.20;52.00;;;;;;5055646;28;20021;-87
2021/12/18 08:55:09;;;;;;;3.80;0.80;;;20.20;51.90;;;;;;5055801;28;20464;-88
2021/12/18 08:57:35;;;;;;;5.30;1.00;;;20.20;51.90;;;;;;5055669;28;20032;-88
2021/12/18 09:00:00;;;;;;;6.38;1.00;;;20.20;51.90;;;;;;5055614;28;20036;-88
2021/12/18 09:02:26;;;;;;;3.70;0.70;;;20.10;51.80;;;;;;5054340;28;20036;-87
2021/12/18 09:04:52;;;;;;;6.47;0.95;;;20.10;51.80;;;;;;5055513;28;20037;-87
2021/12/18 09:07:17;;;;;;;5.28;0.82;;;20.10;51.80;;;;;;5055366;28;20099;-88
2021/12/18 09:09:44;;;;;;;4.60;0.80;;;20.10;51.90;;;;;;5055137;28;20043;-88
2021/12/18 09:12:12;;;;;;;4.53;0.82;;;20.10;51.80;;;;;;5055419;28;20118;-88
2021/12/18 09:14:39;;;;;;;2.90;0.70;;;20.10;51.80;;;;;;5054127;28;20029;-87
2021/12/18 09:17:04;;;;;;;4.20;0.80;;;20.00;51.80;;;;;;5055301;28;20021;-88
2021/12/18 09:19:30;;;;;;;2.63;0.85;;;20.00;51.80;;;;;;5055287;28;20086;-87
2021/12/18 09:21:56;;;;;;;5.10;0.77;;;20.00;51.80;;;;;;5055295;28;20035;-87
2021/12/18 09:24:21;;;;;;;3.67;0.63;;;20.00;51.80;;;;;;5055162;28;20485;-87
2021/12/18 09:26:48;;;;;;;4.35;0.98;;;20.00;51.90;;;;;;5055058;28;20025;-87
2021/12/18 09:29:13;;;;;;;3.08;0.80;;;20.00;51.90;;;;;;5054983;28;20025;-87
2021/12/18 09:31:39;;;;;;;5.60;0.90;;;20.00;52.00;;;;;;5055061;28;20477;-87
2021/12/18 09:34:05;;;;;;;1.42;0.63;;;20.00;52.10;;;;;;5053627;28;20025;-88
2021/12/18 09:36:31;;;;;;;2.45;0.68;;;19.90;52.00;;;;;;5054949;28;20040;-87
2021/12/18 09:38:56;;;;;;;3.60;0.90;;;19.90;52.10;;;;;;5054883;28;20070;-88
2021/12/18 09:41:24;;;;;;;3.97;0.70;;;19.90;52.20;;;;;;5054824;28;20025;-87
2021/12/18 09:43:49;;;;;;;3.28;0.82;;;19.90;52.10;;;;;;5054800;28;20045;-87
2021/12/18 09:46:16;;;;;;;4.47;0.80;;;19.90;52.20;;;;;;5054588;28;20499;-88
2021/12/18 09:48:43;;;;;;;2.17;0.55;;;19.90;52.20;;;;;;5054685;28;20504;-88
2021/12/18 09:51:22;;;;;;;3.08;0.80;;;19.90;52.30;;;;;;5054567;28;20013;-87
2021/12/18 09:53:50;;;;;;;3.40;0.88;;;19.90;52.30;;;;;;5054685;28;20370;-88
2021/12/18 09:56:15;;;;;;;2.42;0.68;;;19.90;52.30;;;;;;5054198;28;20049;-87
2021/12/18 09:58:41;;;;;;;3.40;0.70;;;19.90;52.30;;;;;;5054612;28;20102;-87
2021/12/18 10:01:06;;;;;;;3.28;0.80;;;19.90;52.40;;;;;;5054612;28;20029;-87
2021/12/18 10:03:49;;;;;;;4.47;0.90;;;19.90;52.40;;;;;;5054395;28;20025;-87
2021/12/18 10:06:35;;;;;;;2.13;0.82;;;19.90;52.30;;;;;;5054335;28;20029;-88
2021/12/18 10:09:07;;;;;;;3.40;0.73;;;19.90;52.40;;;;;;5054360;28;20486;-87
2021/12/18 10:11:33;;;;;;;2.15;0.70;;;19.90;52.50;;;;;;5053059;28;20025;-87
2021/12/18 10:14:02;;;;;;;2.90;0.70;;;19.90;52.40;;;;;;5053067;28;20527;-88
2021/12/18 10:16:30;;;;;;;3.25;0.80;;;19.90;52.40;;;;;;5054109;28;20056;-87
2021/12/18 10:18:58;;;;;;;5.80;0.90;;;19.90;52.40;;;;;;5052884;28;20029;-88
2021/12/18 10:21:28;;;;;;;3.00;0.80;;;19.90;52.50;;;;;;5053947;28;20078;-87
2021/12/18 10:23:54;;;;;;;3.03;0.82;;;19.90;52.50;;;;;;5054041;28;20070;-87
2021/12/18 10:26:42;;;;;;;2.75;0.80;;;19.90;52.40;;;;;;5053583;28;20048;-87
2021/12/18 10:29:30;;;;;;;3.42;0.65;;;19.90;52.40;;;;;;5053964;28;20055;-87
2021/12/18 10:32:03;;;;;;;2.95;0.60;;;19.90;52.40;;;;;;5052555;28;20025;-87
2021/12/18 10:34:28;;;;;;;;;;;19.90;53.40;;;;;;5052005;28;20368;-87
2021/12/18 10:37:19;;;;;;;3.00;0.80;;;19.80;52.30;;;;;;5053231;28;19961;-89
2021/12/18 10:39:50;;;;;;;5.63;0.80;;;19.80;52.30;;;;;;5053749;28;20032;-87
2021/12/18 10:42:20;;;;;;;4.05;0.93;;;19.80;52.40;;;;;;5053897;28;20100;-87
2021/12/18 10:45:00;;;;;;;4.43;0.95;;;19.90;52.40;;;;;;5040564;28;20491;-87
2021/12/18 10:47:40;;;;;;;4.38;1.02;;;19.80;52.40;;;;;;5032576;28;20040;-88
2021/12/18 10:50:33;;;;;;;6.18;0.85;;;19.80;52.50;;;;;;5033624;28;20036;-90
2021/12/18 10:53:05;;;;;;;2.93;0.80;;;19.90;52.60;;;;;;5033483;28;20017;-88
2021/12/18 10:55:41;;;;;;;3.72;0.90;;;19.80;52.70;;;;;;5074665;28;20018;-88
2021/12/18 10:58:09;;;;;;;4.40;0.73;;;19.80;52.50;;;;;;5053974;28;20017;-92
2021/12/18 11:00:39;;;;;;;6.00;0.93;;;19.80;52.60;;;;;;5052521;28;20037;-88
2021/12/18 11:03:21;;;;;;;6.72;1.00;;;19.80;52.50;;;;;;5053641;28;20021;-86
2021/12/18 11:06:15;;;;;;;7.07;1.00;;;19.90;52.60;;;;;;5052873;28;20028;-90
2021/12/18 11:09:06;;;;;;;7.20;1.00;;;19.90;52.50;;;;;;5053432;28;20498;-87
2021/12/18 11:14:09;;;;;;;3.65;0.95;;;19.90;52.60;;;;;;5053445;28;20021;-88
2021/12/18 11:16:36;;;;;;;3.58;0.98;;;19.90;52.60;;;;;;5053403;28;20039;-89
2021/12/18 11:19:07;;;;;;;3.15;0.95;;;19.90;52.60;;;;;;5053263;28;20029;-89
2021/12/18 11:21:34;;;;;;;6.65;0.93;;;19.90;52.60;;;;;;5053908;28;20041;-90
2021/12/18 11:24:07;;;;;;;5.93;1.08;;;19.90;52.70;;;;;;5053410;28;20049;-93
2021/12/18 11:26:52;;;;;;;6.50;0.90;;;19.90;52.70;;;;;;5052666;28;20115;-92
2021/12/18 11:29:25;;;;;;;3.35;0.90;;;19.90;52.60;;;;;;5053484;28;20021;-92
2021/12/18 11:31:51;;;;;;;3.60;1.08;;;19.90;52.60;;;;;;5054665;28;20543;-92
2021/12/18 11:34:17;;;;;;;2.67;0.80;;;19.90;52.70;;;;;;5052299;28;20064;-92
2021/12/18 11:36:45;;;;;;;5.38;1.02;;;19.90;52.60;;;;;;5052970;28;20013;-90
2021/12/18 11:39:12;;;;;;;3.78;0.90;;;19.90;52.60;;;;;;5053507;28;20044;-91
2021/12/18 11:41:39;;;;;;;5.38;0.90;;;19.90;52.60;;;;;;5052217;28;20025;-94
2021/12/18 11:44:36;;;;;;;6.57;1.00;;;19.80;52.60;;;;;;5053123;28;20363;-90
2021/12/18 11:47:30;;;;;;;3.28;0.80;;;19.90;52.60;;;;;;5052493;28;20113;-93
2021/12/18 11:49:59;;;;;;;3.63;1.00;;;19.80;52.60;;;;;;5051980;28;20040;-92
2021/12/18 11:52:25;;;;;;;3.55;1.15;;;19.80;52.70;;;;;;5053375;28;20036;-90
2021/12/18 11:55:00;;;;;;;2.95;1.10;;;19.80;52.70;;;;;;5052202;28;20029;-90
2021/12/18 11:57:44;;;;;;;4.32;1.00;;;19.80;52.60;;;;;;5052021;28;20037;-91
2021/12/18 12:00:32;;;;;;;3.22;0.90;;;19.80;52.60;;;;;;5053427;28;20060;-92
2021/12/18 12:02:59;;;;;;;3.33;0.80;;;19.80;52.70;;;;;;5052127;28;20485;-90
2021/12/18 12:05:33;;;;;;;1.60;0.65;;;19.80;52.70;;;;;;5051995;28;20052;-90
2021/12/18 12:08:27;;;;;;;3.40;0.80;;;19.80;52.70;;;;;;5052841;28;20021;-92
2021/12/18 12:11:23;;;;;;;4.72;1.20;;;19.80;52.70;;;;;;5052132;28;20025;-92
2021/12/18 12:14:16;;;;;;;2.80;1.00;;;19.70;52.70;;;;;;5052089;28;20408;-93
2021/12/18 12:16:47;;;;;;;2.28;0.70;;;19.80;52.80;;;;;;5051859;28;20021;-91
2021/12/18 12:19:22;;;;;;;4.35;0.77;;;19.70;52.80;;;;;;5055022;28;20569;-93
2021/12/18 12:21:54;;;;;;;3.38;0.93;;;19.70;52.80;;;;;;5055700;28;20475;-91
2021/12/18 12:24:28;;;;;;;2.30;0.82;;;19.70;52.80;;;;;;5055399;28;20049;-91
2021/12/18 12:27:14;;;;;;;2.53;0.98;;;19.70;52.80;;;;;;5056649;28;20020;-89
2021/12/18 12:29:49;;;;;;;3.35;0.88;;;19.70;53.00;;;;;;5055497;28;20041;-91
2021/12/18 12:32:16;;;;;;;2.70;0.95;;;19.70;52.80;;;;;;5056599;28;20021;-91
2021/12/18 12:34:44;;;;;;;4.07;1.02;;;19.70;52.90;;;;;;5055290;28;20619;-89
2021/12/18 12:37:27;;;;;;;3.30;0.98;;;19.70;52.80;;;;;;5056333;28;20438;-91
2021/12/18 12:39:54;;;;;;;;;;;19.70;52.80;;;;;;5055636;28;20021;-91
2021/12/18 12:42:20;;;;;;;1.60;0.73;;;19.70;52.90;;;;;;5055003;28;20269;-91
2021/12/18 12:44:56;;;;;;;2.67;1.10;;;19.70;52.90;;;;;;5055074;28;20469;-90
2021/12/18 12:47:27;;;;;;;1.67;0.77;;;19.70;52.90;;;;;;5055004;28;20480;-91
2021/12/18 12:50:13;;;;;;;3.92;1.23;;;19.70;52.90;;;;;;5056322;28;20091;-90
2021/12/18 12:53:06;;;;;;;1.70;0.80;;;19.70;52.80;;;;;;5053583;28;20029;-92
2021/12/18 12:55:41;;;;;;;2.97;1.00;;;19.70;52.80;;;;;;5052403;28;20056;-94
2021/12/18 12:58:24;;;;;;;2.58;0.80;;;19.80;53.90;;;;;;5055104;28;20029;-91
2021/12/18 13:00:51;;;;;;;;;;;19.80;52.90;;;;;;5055333;28;20025;-91
2021/12/18 13:03:21;;;;;;;1.67;0.70;;;19.70;52.90;;;;;;5055898;28;19905;-89
2021/12/18 13:06:07;;;;;;;5.07;1.20;;;19.70;52.90;;;;;;5055003;28;20035;-93
2021/12/18 13:08:37;;;;;;;2.72;1.00;;;19.70;52.90;;;;;;5054617;28;20070;-90
2021/12/18 13:11:03;;;;;;;2.30;0.80;;;19.80;54.00;;;;;;5055951;28;20021;-90
2021/12/18 13:13:32;;;;;;;3.58;1.00;;;19.80;53.00;;;;;;5054536;28;20029;-93
2021/12/18 13:16:09;;;;;;;2.38;0.90;;;19.80;52.90;;;;;;5037977;28;20052;-93
2021/12/18 13:18:42;;;;;;;3.50;1.00;;;19.80;52.90;;;;;;5055789;28;20061;-90
2021/12/18 13:21:10;;;;;;;2.17;1.00;;;19.80;52.90;;;;;;5054452;28;20378;-90
2021/12/18 13:23:52;;;;;;;3.92;0.85;;;19.80;52.90;;;;;;5054385;28;20029;-91
2021/12/18 13:26:19;;;;;;;3.85;1.00;;;19.80;52.80;;;;;;5054115;28;20078;-93
2021/12/18 13:28:50;;;;;;;2.35;0.70;;;19.80;52.90;;;;;;5055544;28;20056;-91
2021/12/18 13:31:17;;;;;;;1.10;0.70;;;19.80;52.80;;;;;;5054932;28;20021;-91
2021/12/18 13:33:43;;;;;;;4.53;0.88;;;19.80;52.90;;;;;;5055200;28;20028;-90
2021/12/18 13:36:08;;;;;;;2.90;0.90;;;19.80;52.80;;;;;;5054125;28;20025;-92